This is the latest recevied weather packets stored in our database for station/object IW4DZV-13. If no packets are shown the sender has not sent any weather packets the latest 10 day(s).
| Time | Temp. | Humidity | Pressure | Rain* | Wind** | Luminosity | Snow |
|---|---|---|---|---|---|---|---|
| 1787993101 | 28.33° C | 58% | 1013 hPa | 0 mm | - | 664 W/m² | - |
| 1787992259 | 27.78° C | 59% | 1012.7 hPa | 0 mm | - | 635 W/m² | - |
| 1787991355 | 27.22° C | 60% | 1012.9 hPa | 0 mm | - | 599 W/m² | - |
| 1787990456 | 27.22° C | 63% | 1012.9 hPa | 0 mm | - | 566 W/m² | - |
| 1787989548 | 26.67° C | 70% | 1012.9 hPa | 0 mm | - | 519 W/m² | - |
| 1787988644 | 25.56° C | 76% | 1012.7 hPa | 0 mm | - | 480 W/m² | - |
| 1787987748 | 25° C | 78% | 1012.8 hPa | 0 mm | - | 308 W/m² | - |
| 1787986837 | 23.89° C | 83% | 1012.7 hPa | 0 mm | - | 304 W/m² | - |
| 1787985942 | 22.22° C | 88% | 1012.6 hPa | 0 mm | - | 287 W/m² | - |
| 1787985033 | 21.67° C | 91% | 1012.5 hPa | 0 mm | - | 165 W/m² | - |
| 1787984131 | 21.11° C | 91% | 1012.3 hPa | 0 mm | - | 146 W/m² | - |
| 1787983230 | 20.56° C | 91% | 1012.4 hPa | 0 mm | - | 79 W/m² | - |
| 1787982333 | 20.56° C | 91% | 1012.2 hPa | 0 mm | - | 33 W/m² | - |
| 1787981427 | 20.56° C | 91% | 1012.3 hPa | 0 mm | - | 56 W/m² | - |
| 1787980528 | 20° C | 91% | 1012.1 hPa | 0 mm | - | 39 W/m² | - |
| 1787979622 | 20° C | 91% | 1011.9 hPa | 0 mm | - | 25 W/m² | - |
| 1787978718 | 20° C | 91% | 1011.8 hPa | 0 mm | - | 11 W/m² | - |
| 1787977817 | 20° C | 91% | 1011.5 hPa | 0 mm | - | 0 W/m² | - |
| 1787976916 | 20° C | 90% | 1011.5 hPa | 0 mm | - | 0 W/m² | - |
| 1787976014 | 20° C | 90% | 1011.4 hPa | 0 mm | - | 0 W/m² | - |
| 1787975111 | 20° C | 89% | 1011.2 hPa | 0 mm | - | 0 W/m² | - |
| 1787974210 | 20.56° C | 89% | 1011 hPa | 0 mm | - | 0 W/m² | - |
| 1787973310 | 20.56° C | 89% | 1011 hPa | 0 mm | - | 0 W/m² | - |
| 1787972418 | 20.56° C | 89% | 1010.9 hPa | 0 mm | - | 0 W/m² | - |
| 1787971520 | 20.56° C | 89% | 1010.6 hPa | 0 mm | - | 0 W/m² | - |
* Rain since midnight (hover to see other rain measurements)
** Current wind speed in m/s (hover to see current wind gust speed)